Terminal Aerodrome Forecast
Issued by NWS

Home | Current Version | Previous Version | Graphics & Text | Print | Product List | Glossary On
Versions: 1 2 3 4 5 6 7 8 9 10 11 12 13 14 15
000
FTUS43 KMPX 162000 AAA
TAFRWF
TAF AMD
KRWF 162058Z 1621/1718 05010KT 3SM -SN BR OVC015
      TEMPO 1621/1624 1SM -SN BR OVC005
     FM170000 01017G25KT 2SM -SN BR OVC010
     FM170300 34016G24KT 5SM BR OVC015
     FM170800 33012G20KT P6SM BKN020
     FM171200 34011KT P6SM BKN025=

USA.gov is the U.S. government's official web portal to all federal, state and local government web resources and services.